ADDS METAR Data INFO
IDs: Format: Raw Decoded Include TAF

Data at: 2052 UTC 26 May 2017

KTME 262035Z AUTO 18014G20KT 5SM HZ FEW025 SCT031 OVC039 31/24 A2988 RMK AO2
KTME 262015Z AUTO 19018KT 5SM HZ SCT027 OVC039 31/24 A2989 RMK AO2
KTME 261955Z AUTO 19013G19KT 5SM HZ SCT027 BKN033 OVC039 31/24 A2989 RMK AO2
KTME 261935Z AUTO 19015G20KT 5SM HZ SCT027 BKN037 31/24 A2989 RMK AO2
KTME 261915Z AUTO 18016G20KT 5SM HZ BKN030 BKN039 31/23 A2989 RMK AO2
KTME 261855Z AUTO 19017KT 5SM HZ BKN028 BKN043 32/24 A2990 RMK AO2
KTME 261755Z AUTO 18016G21KT 5SM HZ SCT034 BKN045 31/23 A2991 RMK AO2
KTME 261735Z AUTO 20015KT 5SM HZ BKN035 OVC043 30/23 A2992 RMK AO2
KTME 261715Z AUTO 21014G20KT 6SM HZ BKN033 OVC039 29/23 A2992 RMK AO2
KTME 261655Z AUTO 21013KT 5SM HZ FEW028 BKN038 30/23 A2992 RMK AO2
KTME 261635Z AUTO 21011G15KT 5SM HZ FEW028 OVC040 30/23 A2992 RMK AO2
KTME 261615Z AUTO 21013KT 5SM HZ FEW023 SCT030 OVC040 29/23 A2992 RMK AO2
KTME 261555Z AUTO 20012KT 5SM HZ SCT024 BKN034 OVC041 28/23 A2992 RMK AO2
KTME 261535Z AUTO 19010KT 5SM HZ SCT022 OVC036 28/23 A2992 RMK AO2
KTME 261515Z AUTO 20012KT 5SM HZ OVC036 27/23 A2992 RMK AO2
KTME 261455Z AUTO 19011G16KT 4SM HZ FEW021 OVC036 27/23 A2991 RMK AO2
KTME 261435Z AUTO 19012KT 4SM HZ OVC034 27/23 A2991 RMK AO2
KTME 261415Z AUTO 19009KT 5SM HZ BKN032 OVC039 26/23 A2991 RMK AO2
KTME 261355Z AUTO 17007KT 5SM BR OVC030 25/23 A2991 RMK AO2
KTME 261335Z AUTO 17007KT 5SM BR OVC030 25/23 A2990 RMK AO2
KTME 261315Z AUTO 18006KT 5SM BR SCT021 OVC032 25/23 A2990 RMK AO2
KTME 261255Z AUTO 17006KT 5SM BR SCT021 OVC032 25/23 A2989 RMK AO2
KTME 261235Z AUTO 18007KT 5SM BR FEW021 OVC032 24/23 A2988 RMK AO2
KTME 261215Z AUTO 17007KT 5SM BR FEW021 OVC030 24/23 A2987 RMK AO2
KTME 261155Z AUTO 17007KT 5SM BR OVC030 24/23 A2986 RMK AO2
KTME 261135Z AUTO 17007KT 5SM BR OVC028 24/22 A2986 RMK AO2
KTME 261115Z AUTO 17006KT 5SM BR FEW021 OVC028 24/22 A2986 RMK AO2
KTME 261055Z AUTO 18008KT 5SM BR OVC028 24/22 A2985 RMK AO2
KTME 261035Z AUTO 18007KT 5SM BR OVC026 24/22 A2984 RMK AO2
KTME 261015Z AUTO 18007KT 5SM BR SCT021 OVC026 24/22 A2984 RMK AO2
KTME 260955Z AUTO 19007KT 5SM BR BKN021 OVC026 24/22 A2983 RMK AO2
KTME 260935Z AUTO 17005KT 5SM BR BKN018 OVC026 23/22 A2983 RMK AO2
KTME 260915Z AUTO 17005KT 5SM BR OVC020 23/22 A2983 RMK AO2
KTME 260855Z AUTO 18005KT 5SM BR OVC022 23/22 A2982 RMK AO2
KTME 260835Z AUTO 17006KT 5SM BR OVC022 23/21 A2982 RMK AO2
KTME 260755Z AUTO 17008KT 5SM BR OVC020 22/20 A2981 RMK AO2
KTME 260735Z AUTO 17007KT 5SM BR OVC018 22/20 A2981 RMK AO2
KTME 260715Z AUTO 18008KT 6SM BR OVC016 22/20 A2982 RMK AO2
KTME 260655Z AUTO 18009KT 5SM BR OVC016 22/20 A2981 RMK AO2
KTME 260635Z AUTO 18009KT 5SM BR SCT016 SCT034 22/20 A2981 RMK AO2
KTME 260615Z AUTO 17009KT 6SM BR CLR 22/20 A2981 RMK AO2
KTME 260555Z AUTO 17011KT 6SM BR CLR 22/20 A2981 RMK AO2
KTME 260535Z AUTO 17010KT 5SM BR CLR 22/20 A2981 RMK AO2
KTME 260515Z AUTO 17011KT 6SM BR CLR 22/20 A2981 RMK AO2
KTME 260455Z AUTO 17010KT 7SM CLR 22/19 A2982 RMK AO2
KTME 260435Z AUTO 17009KT 6SM HZ CLR 22/19 A2982 RMK AO2
KTME 260415Z AUTO 18010KT 7SM CLR 22/19 A2982 RMK AO2
KTME 260355Z AUTO 18010KT 6SM HZ CLR 22/19 A2982 RMK AO2
KTME 260335Z AUTO 17011KT 6SM HZ CLR 23/19 A2981 RMK AO2
KTME 260315Z AUTO 17010KT 7SM CLR 23/19 A2981 RMK AO2
KTME 260255Z AUTO 18010KT 7SM CLR 23/18 A2980 RMK AO2
KTME 260235Z AUTO 17010KT 8SM CLR 24/18 A2979 RMK AO2
KTME 260215Z AUTO 17010KT 8SM FEW021 24/17 A2979 RMK AO2
KTME 260155Z AUTO 17009KT 8SM CLR 24/15 A2978 RMK AO2
KTME 260135Z AUTO 17011KT 7SM CLR 25/15 A2977 RMK AO2
KTME 260115Z AUTO 17011KT 7SM CLR 25/15 A2977 RMK AO2
KTME 260055Z AUTO 17012KT 5SM HZ CLR 27/14 A2976 RMK AO2
KTME 260035Z AUTO 17014KT 7SM CLR 28/14 A2976 RMK AO2
KTME 260015Z AUTO 17014KT 7SM CLR 29/13 A2976 RMK AO2
KTME 252355Z AUTO 17012G20KT 7SM CLR 30/13 A2977 RMK AO2
KTME 252335Z AUTO 18013G22KT 7SM CLR 30/13 A2977 RMK AO2
KTME 252315Z AUTO 18017G22KT 6SM HZ CLR 30/13 A2977 RMK AO2
KTME 252255Z AUTO 18015G22KT 7SM CLR 32/14 A2977 RMK AO2
KTME 252235Z AUTO 19014G19KT 6SM HZ CLR 32/13 A2977 RMK AO2
KTME 252215Z AUTO 18016G22KT 7SM CLR 32/12 A2978 RMK AO2
KTME 252155Z AUTO 20016KT 7SM CLR 32/12 A2978 RMK AO2
KTME 252135Z AUTO 19019G24KT 7SM CLR 32/13 A2979 RMK AO2
KTME 252115Z AUTO 21016G24KT 7SM CLR 32/13 A2979 RMK AO2
KTME 252055Z AUTO 19020G25KT 7SM CLR 32/15 A2979 RMK AO2
KTME 252035Z AUTO 20017G24KT 5SM HZ CLR 32/16 A2978 RMK AO2
KTME 251855Z AUTO 20017G25KT 6SM HZ CLR 31/17 A2981 RMK AO2
KTME 251835Z AUTO 19015G23KT 6SM HZ CLR 31/17 A2981 RMK AO2
KTME 251815Z AUTO 19016G19KT 6SM HZ CLR 30/17 A2982 RMK AO2
KTME 251755Z AUTO 21013G21KT 5SM HZ CLR 30/17 A2982 RMK AO2
KTME 251735Z AUTO 20017KT 5SM HZ CLR 30/17 A2982 RMK AO2
KTME 251715Z AUTO 19018G21KT 5SM HZ CLR 29/17 A2983 RMK AO2
KTME 251655Z AUTO 20019KT 5SM HZ CLR 29/16 A2983 RMK AO2
KTME 251635Z AUTO 19018G24KT 6SM HZ CLR 29/16 A2983 RMK AO2
KTME 251615Z AUTO 20014KT 5SM HZ CLR 28/18 A2983 RMK AO2
KTME 251555Z AUTO 19018G23KT 5SM HZ CLR 28/17 A2984 RMK AO2
KTME 251535Z AUTO 20016G21KT 5SM HZ CLR 28/18 A2984 RMK AO2
KTME 251515Z AUTO 21016G22KT 6SM HZ CLR 27/17 A2984 RMK AO2
KTME 251455Z AUTO 20018KT 5SM HZ CLR 26/18 A2984 RMK AO2
KTME 251435Z AUTO 21011KT 5SM HZ CLR 25/19 A2984 RMK AO2
KTME 251415Z AUTO 21010KT 5SM HZ CLR 24/18 A2984 RMK AO2
KTME 251355Z AUTO 21010KT 6SM HZ CLR 23/18 A2983 RMK AO2
KTME 251335Z AUTO 20009KT 5SM HZ CLR 22/18 A2983 RMK AO2
KTME 251315Z AUTO 20005KT 5SM HZ CLR 21/18 A2983 RMK AO2
KTME 251255Z AUTO 20005KT 5SM BR CLR 20/18 A2982 RMK AO2
KTME 251235Z AUTO 18003KT 5SM BR CLR 18/17 A2982 RMK AO2
KTME 251215Z AUTO 00000KT 6SM BR CLR 17/17 A2981 RMK AO2
KTME 251155Z AUTO 17004KT 6SM BR CLR 17/16 A2980 RMK AO2
KTME 251135Z AUTO 19005KT 6SM BR CLR 17/15 A2979 RMK AO2
KTME 251115Z AUTO 20005KT 6SM BR CLR 17/16 A2978 RMK AO2
KTME 251055Z AUTO 19005KT 5SM BR CLR 17/16 A2978 RMK AO2
KTME 251035Z AUTO 20005KT 6SM BR CLR 17/16 A2978 RMK AO2
KTME 251015Z AUTO 21006KT 7SM CLR 18/16 A2978 RMK AO2
KTME 250955Z AUTO 20007KT 7SM CLR 17/16 A2977 RMK AO2
KTME 250935Z AUTO 20007KT 7SM CLR 17/16 A2977 RMK AO2


Page loaded:  20:52 UTC  |   01:52 PM Pacific  |   02:52 PM Mountain  |   03:52 PM Central  |   04:52 PM Eastern

 

ADVISORIES

FORECASTS

FORECASTS

OBSERVATIONS

USER TOOLS

ABOUT US